sensor_id;sensor_type;location;lat;lon;timestamp;P1;durP1;ratioP1;P2;durP2;ratioP2
32760;SDS011;19126;47.472;7.850;2023-08-24T00:02:10;23.45;;;7.93;;
32760;SDS011;19126;47.472;7.850;2023-08-24T00:04:37;12.77;;;8.00;;
32760;SDS011;19126;47.472;7.850;2023-08-24T00:07:05;13.45;;;7.13;;
32760;SDS011;19126;47.472;7.850;2023-08-24T00:09:33;13.90;;;8.32;;
32760;SDS011;19126;47.472;7.850;2023-08-24T00:12:00;13.45;;;7.97;;
32760;SDS011;19126;47.472;7.850;2023-08-24T00:14:27;8.32;;;7.05;;
32760;SDS011;19126;47.472;7.850;2023-08-24T00:16:56;11.48;;;7.40;;
32760;SDS011;19126;47.472;7.850;2023-08-24T00:19:24;13.25;;;8.18;;
32760;SDS011;19126;47.472;7.850;2023-08-24T00:21:51;11.27;;;8.02;;
32760;SDS011;19126;47.472;7.850;2023-08-24T00:24:18;26.73;;;9.38;;
32760;SDS011;19126;47.472;7.850;2023-08-24T00:26:46;13.13;;;8.25;;
32760;SDS011;19126;47.472;7.850;2023-08-24T00:29:13;12.90;;;7.93;;
32760;SDS011;19126;47.472;7.850;2023-08-24T00:31:41;8.88;;;7.95;;
32760;SDS011;19126;47.472;7.850;2023-08-24T00:34:09;10.68;;;7.90;;
32760;SDS011;19126;47.472;7.850;2023-08-24T00:36:37;10.60;;;7.90;;
32760;SDS011;19126;47.472;7.850;2023-08-24T00:39:04;14.85;;;9.00;;
32760;SDS011;19126;47.472;7.850;2023-08-24T00:41:31;13.27;;;8.60;;
32760;SDS011;19126;47.472;7.850;2023-08-24T00:43:59;20.20;;;8.75;;
32760;SDS011;19126;47.472;7.850;2023-08-24T00:46:27;12.27;;;8.18;;
32760;SDS011;19126;47.472;7.850;2023-08-24T00:48:54;13.45;;;9.25;;
32760;SDS011;19126;47.472;7.850;2023-08-24T00:51:24;16.88;;;8.30;;
32760;SDS011;19126;47.472;7.850;2023-08-24T00:53:51;14.82;;;8.38;;
32760;SDS011;19126;47.472;7.850;2023-08-24T00:56:19;10.15;;;8.18;;
32760;SDS011;19126;47.472;7.850;2023-08-24T00:58:49;11.35;;;7.85;;
32760;SDS011;19126;47.472;7.850;2023-08-24T01:01:18;10.32;;;7.53;;
32760;SDS011;19126;47.472;7.850;2023-08-24T01:03:45;9.65;;;7.57;;
32760;SDS011;19126;47.472;7.850;2023-08-24T01:06:13;16.85;;;7.70;;
32760;SDS011;19126;47.472;7.850;2023-08-24T01:08:42;9.75;;;7.60;;
32760;SDS011;19126;47.472;7.850;2023-08-24T01:11:11;9.23;;;7.43;;
32760;SDS011;19126;47.472;7.850;2023-08-24T01:13:56;17.23;;;8.27;;
32760;SDS011;19126;47.472;7.850;2023-08-24T01:16:34;16.73;;;7.88;;
32760;SDS011;19126;47.472;7.850;2023-08-24T01:19:06;12.10;;;7.07;;
32760;SDS011;19126;47.472;7.850;2023-08-24T01:21:40;8.07;;;7.10;;
32760;SDS011;19126;47.472;7.850;2023-08-24T01:24:10;9.85;;;6.75;;
32760;SDS011;19126;47.472;7.850;2023-08-24T01:26:45;10.82;;;6.95;;
32760;SDS011;19126;47.472;7.850;2023-08-24T01:29:14;15.95;;;6.60;;
32760;SDS011;19126;47.472;7.850;2023-08-24T01:31:42;10.57;;;7.45;;
32760;SDS011;19126;47.472;7.850;2023-08-24T01:34:09;12.30;;;6.45;;
32760;SDS011;19126;47.472;7.850;2023-08-24T01:36:37;14.85;;;6.47;;
32760;SDS011;19126;47.472;7.850;2023-08-24T01:39:06;9.77;;;6.20;;
32760;SDS011;19126;47.472;7.850;2023-08-24T01:41:48;10.32;;;6.57;;
32760;SDS011;19126;47.472;7.850;2023-08-24T01:44:18;6.85;;;5.68;;
32760;SDS011;19126;47.472;7.850;2023-08-24T01:46:47;9.32;;;5.30;;
32760;SDS011;19126;47.472;7.850;2023-08-24T01:49:17;6.30;;;5.50;;
32760;SDS011;19126;47.472;7.850;2023-08-24T01:51:46;9.43;;;5.85;;
32760;SDS011;19126;47.472;7.850;2023-08-24T01:54:13;7.43;;;5.95;;
32760;SDS011;19126;47.472;7.850;2023-08-24T01:56:41;9.52;;;6.03;;
32760;SDS011;19126;47.472;7.850;2023-08-24T01:59:09;7.28;;;5.55;;
32760;SDS011;19126;47.472;7.850;2023-08-24T02:01:37;13.70;;;5.80;;
32760;SDS011;19126;47.472;7.850;2023-08-24T02:04:04;9.77;;;6.25;;
32760;SDS011;19126;47.472;7.850;2023-08-24T02:06:31;11.48;;;5.82;;
32760;SDS011;19126;47.472;7.850;2023-08-24T02:08:59;9.55;;;6.05;;
32760;SDS011;19126;47.472;7.850;2023-08-24T02:11:26;9.52;;;5.60;;
32760;SDS011;19126;47.472;7.850;2023-08-24T02:13:53;17.77;;;5.50;;
32760;SDS011;19126;47.472;7.850;2023-08-24T02:16:22;8.73;;;6.20;;
32760;SDS011;19126;47.472;7.850;2023-08-24T02:18:49;14.88;;;6.00;;
32760;SDS011;19126;47.472;7.850;2023-08-24T02:21:17;10.23;;;6.55;;
32760;SDS011;19126;47.472;7.850;2023-08-24T02:23:44;15.13;;;5.63;;
32760;SDS011;19126;47.472;7.850;2023-08-24T02:26:12;8.80;;;5.13;;
32760;SDS011;19126;47.472;7.850;2023-08-24T02:28:39;14.77;;;5.40;;
32760;SDS011;19126;47.472;7.850;2023-08-24T02:31:07;10.82;;;5.68;;
32760;SDS011;19126;47.472;7.850;2023-08-24T02:33:36;10.25;;;5.20;;
32760;SDS011;19126;47.472;7.850;2023-08-24T02:36:03;15.45;;;5.50;;
32760;SDS011;19126;47.472;7.850;2023-08-24T02:38:30;14.05;;;5.30;;
32760;SDS011;19126;47.472;7.850;2023-08-24T02:41:01;10.13;;;5.68;;
32760;SDS011;19126;47.472;7.850;2023-08-24T02:43:29;6.88;;;5.63;;
32760;SDS011;19126;47.472;7.850;2023-08-24T02:46:00;8.45;;;5.75;;
32760;SDS011;19126;47.472;7.850;2023-08-24T02:48:29;10.95;;;5.97;;
32760;SDS011;19126;47.472;7.850;2023-08-24T02:50:58;8.70;;;5.68;;
32760;SDS011;19126;47.472;7.850;2023-08-24T02:53:27;11.45;;;6.82;;
32760;SDS011;19126;47.472;7.850;2023-08-24T02:55:55;20.67;;;6.18;;
32760;SDS011;19126;47.472;7.850;2023-08-24T02:58:23;9.93;;;6.00;;
32760;SDS011;19126;47.472;7.850;2023-08-24T03:00:50;10.32;;;6.15;;
32760;SDS011;19126;47.472;7.850;2023-08-24T03:03:18;8.05;;;5.68;;
32760;SDS011;19126;47.472;7.850;2023-08-24T03:05:52;9.27;;;6.35;;
32760;SDS011;19126;47.472;7.850;2023-08-24T03:08:22;9.95;;;6.15;;
32760;SDS011;19126;47.472;7.850;2023-08-24T03:10:50;11.43;;;6.53;;
32760;SDS011;19126;47.472;7.850;2023-08-24T03:13:17;8.10;;;5.80;;
32760;SDS011;19126;47.472;7.850;2023-08-24T03:15:45;15.77;;;6.40;;
32760;SDS011;19126;47.472;7.850;2023-08-24T03:18:12;15.02;;;6.65;;
32760;SDS011;19126;47.472;7.850;2023-08-24T03:20:43;11.45;;;5.63;;
32760;SDS011;19126;47.472;7.850;2023-08-24T03:23:11;8.45;;;6.00;;
32760;SDS011;19126;47.472;7.850;2023-08-24T03:25:40;12.13;;;6.05;;
32760;SDS011;19126;47.472;7.850;2023-08-24T03:28:08;11.43;;;6.60;;
32760;SDS011;19126;47.472;7.850;2023-08-24T03:30:37;9.02;;;6.15;;
32760;SDS011;19126;47.472;7.850;2023-08-24T03:33:06;9.60;;;6.55;;
32760;SDS011;19126;47.472;7.850;2023-08-24T03:35:33;8.43;;;6.88;;
32760;SDS011;19126;47.472;7.850;2023-08-24T03:38:02;11.88;;;5.97;;
32760;SDS011;19126;47.472;7.850;2023-08-24T03:40:29;12.63;;;6.38;;
32760;SDS011;19126;47.472;7.850;2023-08-24T03:42:58;11.85;;;6.53;;
32760;SDS011;19126;47.472;7.850;2023-08-24T03:45:27;11.02;;;5.88;;
32760;SDS011;19126;47.472;7.850;2023-08-24T03:47:56;8.38;;;6.03;;
32760;SDS011;19126;47.472;7.850;2023-08-24T03:50:23;7.90;;;6.10;;
32760;SDS011;19126;47.472;7.850;2023-08-24T03:52:51;10.40;;;6.30;;
32760;SDS011;19126;47.472;7.850;2023-08-24T03:55:19;17.40;;;6.97;;
32760;SDS011;19126;47.472;7.850;2023-08-24T03:57:46;10.70;;;6.65;;
32760;SDS011;19126;47.472;7.850;2023-08-24T04:00:16;16.77;;;6.72;;
32760;SDS011;19126;47.472;7.850;2023-08-24T04:02:43;10.68;;;6.28;;
32760;SDS011;19126;47.472;7.850;2023-08-24T04:05:11;13.07;;;6.90;;
32760;SDS011;19126;47.472;7.850;2023-08-24T04:07:38;15.35;;;6.20;;
32760;SDS011;19126;47.472;7.850;2023-08-24T04:10:07;11.82;;;6.30;;
32760;SDS011;19126;47.472;7.850;2023-08-24T04:12:35;13.07;;;6.45;;
32760;SDS011;19126;47.472;7.850;2023-08-24T04:15:03;14.82;;;5.90;;
32760;SDS011;19126;47.472;7.850;2023-08-24T04:17:32;13.65;;;7.35;;
32760;SDS011;19126;47.472;7.850;2023-08-24T04:20:00;17.20;;;7.32;;
32760;SDS011;19126;47.472;7.850;2023-08-24T04:22:27;13.35;;;6.72;;
32760;SDS011;19126;47.472;7.850;2023-08-24T04:24:54;9.98;;;5.78;;
32760;SDS011;19126;47.472;7.850;2023-08-24T04:27:22;15.38;;;6.68;;
32760;SDS011;19126;47.472;7.850;2023-08-24T04:29:49;14.32;;;7.28;;
32760;SDS011;19126;47.472;7.850;2023-08-24T04:32:16;10.98;;;6.65;;
32760;SDS011;19126;47.472;7.850;2023-08-24T04:34:45;9.57;;;6.05;;
32760;SDS011;19126;47.472;7.850;2023-08-24T04:37:12;18.80;;;6.50;;
32760;SDS011;19126;47.472;7.850;2023-08-24T04:39:39;7.63;;;6.10;;
32760;SDS011;19126;47.472;7.850;2023-08-24T04:42:07;12.77;;;7.30;;
32760;SDS011;19126;47.472;7.850;2023-08-24T04:44:34;12.18;;;7.55;;
32760;SDS011;19126;47.472;7.850;2023-08-24T04:47:01;15.07;;;7.03;;
32760;SDS011;19126;47.472;7.850;2023-08-24T04:49:29;14.55;;;7.45;;
32760;SDS011;19126;47.472;7.850;2023-08-24T04:51:58;13.57;;;7.10;;
32760;SDS011;19126;47.472;7.850;2023-08-24T04:54:25;13.68;;;7.57;;
32760;SDS011;19126;47.472;7.850;2023-08-24T04:56:52;12.05;;;6.28;;
32760;SDS011;19126;47.472;7.850;2023-08-24T04:59:20;13.07;;;7.40;;
32760;SDS011;19126;47.472;7.850;2023-08-24T05:01:47;8.57;;;6.50;;
32760;SDS011;19126;47.472;7.850;2023-08-24T05:04:14;10.73;;;6.85;;
32760;SDS011;19126;47.472;7.850;2023-08-24T05:06:42;9.40;;;6.85;;
32760;SDS011;19126;47.472;7.850;2023-08-24T05:09:10;8.95;;;6.93;;
32760;SDS011;19126;47.472;7.850;2023-08-24T05:11:38;11.00;;;7.07;;
32760;SDS011;19126;47.472;7.850;2023-08-24T05:14:05;9.63;;;6.70;;
32760;SDS011;19126;47.472;7.850;2023-08-24T05:16:33;13.15;;;7.28;;
32760;SDS011;19126;47.472;7.850;2023-08-24T05:19:00;12.02;;;7.25;;
32760;SDS011;19126;47.472;7.850;2023-08-24T05:21:28;11.02;;;7.00;;
32760;SDS011;19126;47.472;7.850;2023-08-24T05:23:55;9.27;;;6.75;;
32760;SDS011;19126;47.472;7.850;2023-08-24T05:26:24;8.80;;;6.90;;
32760;SDS011;19126;47.472;7.850;2023-08-24T05:28:52;8.48;;;6.68;;
32760;SDS011;19126;47.472;7.850;2023-08-24T05:31:19;18.40;;;7.25;;
32760;SDS011;19126;47.472;7.850;2023-08-24T05:33:47;11.48;;;6.75;;
32760;SDS011;19126;47.472;7.850;2023-08-24T05:36:14;15.88;;;7.30;;
32760;SDS011;19126;47.472;7.850;2023-08-24T05:38:41;12.38;;;6.90;;
32760;SDS011;19126;47.472;7.850;2023-08-24T05:41:12;16.67;;;7.30;;
32760;SDS011;19126;47.472;7.850;2023-08-24T05:43:41;11.20;;;7.10;;
32760;SDS011;19126;47.472;7.850;2023-08-24T05:46:09;10.23;;;6.75;;
32760;SDS011;19126;47.472;7.850;2023-08-24T05:48:36;17.10;;;7.03;;
32760;SDS011;19126;47.472;7.850;2023-08-24T05:51:03;11.45;;;6.88;;
32760;SDS011;19126;47.472;7.850;2023-08-24T05:53:34;10.68;;;7.25;;
32760;SDS011;19126;47.472;7.850;2023-08-24T05:56:02;14.25;;;6.63;;
32760;SDS011;19126;47.472;7.850;2023-08-24T05:58:29;11.82;;;7.10;;
32760;SDS011;19126;47.472;7.850;2023-08-24T06:00:58;9.93;;;6.53;;
32760;SDS011;19126;47.472;7.850;2023-08-24T06:03:26;11.68;;;7.18;;
32760;SDS011;19126;47.472;7.850;2023-08-24T06:05:53;10.80;;;6.25;;
32760;SDS011;19126;47.472;7.850;2023-08-24T06:08:27;16.17;;;6.63;;
32760;SDS011;19126;47.472;7.850;2023-08-24T06:10:55;18.75;;;7.10;;
32760;SDS011;19126;47.472;7.850;2023-08-24T06:13:23;8.23;;;6.40;;
32760;SDS011;19126;47.472;7.850;2023-08-24T06:15:50;10.77;;;6.80;;
32760;SDS011;19126;47.472;7.850;2023-08-24T06:18:19;12.13;;;6.57;;
32760;SDS011;19126;47.472;7.850;2023-08-24T06:20:47;19.35;;;6.88;;
32760;SDS011;19126;47.472;7.850;2023-08-24T06:23:15;14.65;;;6.55;;
32760;SDS011;19126;47.472;7.850;2023-08-24T06:25:43;15.88;;;6.78;;
32760;SDS011;19126;47.472;7.850;2023-08-24T06:28:11;20.92;;;6.88;;
32760;SDS011;19126;47.472;7.850;2023-08-24T06:30:40;14.68;;;6.18;;
32760;SDS011;19126;47.472;7.850;2023-08-24T06:33:08;10.73;;;5.82;;
32760;SDS011;19126;47.472;7.850;2023-08-24T06:35:38;14.18;;;6.35;;
32760;SDS011;19126;47.472;7.850;2023-08-24T06:38:05;9.20;;;6.15;;
32760;SDS011;19126;47.472;7.850;2023-08-24T06:40:32;10.52;;;5.57;;
32760;SDS011;19126;47.472;7.850;2023-08-24T06:43:00;14.27;;;5.75;;
32760;SDS011;19126;47.472;7.850;2023-08-24T06:45:30;15.98;;;5.45;;
32760;SDS011;19126;47.472;7.850;2023-08-24T06:47:57;9.30;;;5.90;;
32760;SDS011;19126;47.472;7.850;2023-08-24T06:50:25;9.10;;;5.65;;
32760;SDS011;19126;47.472;7.850;2023-08-24T06:52:54;17.38;;;7.30;;
32760;SDS011;19126;47.472;7.850;2023-08-24T06:55:21;18.98;;;7.60;;
32760;SDS011;19126;47.472;7.850;2023-08-24T06:57:49;18.08;;;6.40;;
32760;SDS011;19126;47.472;7.850;2023-08-24T07:00:17;10.07;;;5.25;;
32760;SDS011;19126;47.472;7.850;2023-08-24T07:02:46;9.50;;;5.03;;
32760;SDS011;19126;47.472;7.850;2023-08-24T07:05:13;8.65;;;5.18;;
32760;SDS011;19126;47.472;7.850;2023-08-24T07:07:43;13.77;;;5.65;;
32760;SDS011;19126;47.472;7.850;2023-08-24T07:10:12;16.25;;;5.28;;
32760;SDS011;19126;47.472;7.850;2023-08-24T07:12:40;16.77;;;6.00;;
32760;SDS011;19126;47.472;7.850;2023-08-24T07:15:10;11.68;;;4.82;;
32760;SDS011;19126;47.472;7.850;2023-08-24T07:17:37;15.45;;;5.75;;
32760;SDS011;19126;47.472;7.850;2023-08-24T07:20:05;8.52;;;5.47;;
32760;SDS011;19126;47.472;7.850;2023-08-24T07:22:34;10.40;;;5.15;;
32760;SDS011;19126;47.472;7.850;2023-08-24T07:25:01;9.65;;;5.28;;
32760;SDS011;19126;47.472;7.850;2023-08-24T07:27:33;11.02;;;4.65;;
32760;SDS011;19126;47.472;7.850;2023-08-24T07:30:01;9.93;;;5.10;;
32760;SDS011;19126;47.472;7.850;2023-08-24T07:32:30;7.90;;;4.78;;
32760;SDS011;19126;47.472;7.850;2023-08-24T07:34:58;17.67;;;5.30;;
32760;SDS011;19126;47.472;7.850;2023-08-24T07:37:25;16.83;;;5.28;;
32760;SDS011;19126;47.472;7.850;2023-08-24T07:39:53;10.35;;;5.65;;
32760;SDS011;19126;47.472;7.850;2023-08-24T07:42:21;13.43;;;5.00;;
32760;SDS011;19126;47.472;7.850;2023-08-24T07:44:50;9.80;;;4.95;;
32760;SDS011;19126;47.472;7.850;2023-08-24T07:47:17;12.18;;;5.55;;
32760;SDS011;19126;47.472;7.850;2023-08-24T07:49:44;14.80;;;5.40;;
32760;SDS011;19126;47.472;7.850;2023-08-24T07:52:12;13.80;;;5.07;;
32760;SDS011;19126;47.472;7.850;2023-08-24T07:54:39;18.90;;;5.75;;
32760;SDS011;19126;47.472;7.850;2023-08-24T07:57:07;13.52;;;6.20;;
32760;SDS011;19126;47.472;7.850;2023-08-24T07:59:34;12.75;;;5.75;;
32760;SDS011;19126;47.472;7.850;2023-08-24T08:02:03;16.48;;;5.55;;
32760;SDS011;19126;47.472;7.850;2023-08-24T08:04:30;9.43;;;5.40;;
32760;SDS011;19126;47.472;7.850;2023-08-24T08:06:57;12.18;;;5.40;;
32760;SDS011;19126;47.472;7.850;2023-08-24T08:09:25;9.88;;;5.05;;
32760;SDS011;19126;47.472;7.850;2023-08-24T08:11:52;15.95;;;5.80;;
32760;SDS011;19126;47.472;7.850;2023-08-24T08:14:19;15.32;;;5.30;;
32760;SDS011;19126;47.472;7.850;2023-08-24T08:16:47;8.32;;;5.05;;
32760;SDS011;19126;47.472;7.850;2023-08-24T08:19:15;8.55;;;5.35;;
32760;SDS011;19126;47.472;7.850;2023-08-24T08:21:44;13.98;;;5.13;;
32760;SDS011;19126;47.472;7.850;2023-08-24T08:24:11;10.75;;;5.30;;
32760;SDS011;19126;47.472;7.850;2023-08-24T08:26:39;10.02;;;5.35;;
32760;SDS011;19126;47.472;7.850;2023-08-24T08:29:06;12.90;;;5.18;;
32760;SDS011;19126;47.472;7.850;2023-08-24T08:31:33;18.02;;;5.30;;
32760;SDS011;19126;47.472;7.850;2023-08-24T08:34:01;17.52;;;6.43;;
32760;SDS011;19126;47.472;7.850;2023-08-24T08:36:30;15.60;;;4.82;;
32760;SDS011;19126;47.472;7.850;2023-08-24T08:38:59;12.50;;;4.85;;
32760;SDS011;19126;47.472;7.850;2023-08-24T08:41:43;12.85;;;5.15;;
32760;SDS011;19126;47.472;7.850;2023-08-24T08:44:13;13.50;;;5.43;;
32760;SDS011;19126;47.472;7.850;2023-08-24T08:46:41;7.10;;;4.65;;
32760;SDS011;19126;47.472;7.850;2023-08-24T08:49:11;17.52;;;5.50;;
32760;SDS011;19126;47.472;7.850;2023-08-24T08:51:42;13.32;;;6.50;;
32760;SDS011;19126;47.472;7.850;2023-08-24T08:54:10;11.75;;;4.97;;
32760;SDS011;19126;47.472;7.850;2023-08-24T08:56:38;17.02;;;5.47;;
32760;SDS011;19126;47.472;7.850;2023-08-24T08:59:06;13.02;;;5.18;;
32760;SDS011;19126;47.472;7.850;2023-08-24T09:01:36;14.05;;;5.22;;
32760;SDS011;19126;47.472;7.850;2023-08-24T09:04:04;11.07;;;4.47;;
32760;SDS011;19126;47.472;7.850;2023-08-24T09:06:32;18.17;;;5.00;;
32760;SDS011;19126;47.472;7.850;2023-08-24T09:09:02;14.13;;;5.35;;
32760;SDS011;19126;47.472;7.850;2023-08-24T09:11:31;11.82;;;5.43;;
32760;SDS011;19126;47.472;7.850;2023-08-24T09:13:59;15.57;;;4.35;;
32760;SDS011;19126;47.472;7.850;2023-08-24T09:16:28;13.93;;;4.75;;
32760;SDS011;19126;47.472;7.850;2023-08-24T09:18:56;9.93;;;5.60;;
32760;SDS011;19126;47.472;7.850;2023-08-24T09:21:23;13.15;;;5.45;;
32760;SDS011;19126;47.472;7.850;2023-08-24T09:23:52;11.93;;;4.80;;
32760;SDS011;19126;47.472;7.850;2023-08-24T09:26:29;20.67;;;5.65;;
32760;SDS011;19126;47.472;7.850;2023-08-24T09:28:56;11.93;;;5.10;;
32760;SDS011;19126;47.472;7.850;2023-08-24T09:31:26;37.60;;;5.75;;
32760;SDS011;19126;47.472;7.850;2023-08-24T09:34:02;27.25;;;5.53;;
32760;SDS011;19126;47.472;7.850;2023-08-24T09:36:31;17.38;;;5.18;;
32760;SDS011;19126;47.472;7.850;2023-08-24T09:38:59;22.45;;;5.45;;
32760;SDS011;19126;47.472;7.850;2023-08-24T09:41:40;15.55;;;5.43;;
32760;SDS011;19126;47.472;7.850;2023-08-24T09:44:08;26.02;;;5.15;;
32760;SDS011;19126;47.472;7.850;2023-08-24T09:46:37;15.02;;;5.03;;
32760;SDS011;19126;47.472;7.850;2023-08-24T09:49:06;15.18;;;5.03;;
32760;SDS011;19126;47.472;7.850;2023-08-24T09:51:37;22.33;;;5.43;;
32760;SDS011;19126;47.472;7.850;2023-08-24T09:54:06;13.10;;;4.82;;
32760;SDS011;19126;47.472;7.850;2023-08-24T09:56:35;21.13;;;5.30;;
32760;SDS011;19126;47.472;7.850;2023-08-24T09:59:10;16.80;;;4.82;;
32760;SDS011;19126;47.472;7.850;2023-08-24T10:01:42;18.80;;;5.72;;
32760;SDS011;19126;47.472;7.850;2023-08-24T10:04:12;13.40;;;4.32;;
32760;SDS011;19126;47.472;7.850;2023-08-24T10:06:41;16.75;;;5.35;;
32760;SDS011;19126;47.472;7.850;2023-08-24T10:09:11;26.02;;;5.47;;
32760;SDS011;19126;47.472;7.850;2023-08-24T10:11:48;15.35;;;5.20;;
32760;SDS011;19126;47.472;7.850;2023-08-24T10:16:53;18.42;;;4.78;;
32760;SDS011;19126;47.472;7.850;2023-08-24T10:19:21;23.90;;;5.60;;
32760;SDS011;19126;47.472;7.850;2023-08-24T10:21:51;12.88;;;4.57;;
32760;SDS011;19126;47.472;7.850;2023-08-24T10:24:22;12.65;;;4.88;;
32760;SDS011;19126;47.472;7.850;2023-08-24T10:26:50;24.45;;;4.78;;
32760;SDS011;19126;47.472;7.850;2023-08-24T10:29:18;19.38;;;5.25;;
32760;SDS011;19126;47.472;7.850;2023-08-24T10:31:49;16.63;;;4.88;;
32760;SDS011;19126;47.472;7.850;2023-08-24T10:34:17;16.10;;;5.38;;
32760;SDS011;19126;47.472;7.850;2023-08-24T10:36:46;27.40;;;4.85;;
32760;SDS011;19126;47.472;7.850;2023-08-24T10:39:14;17.52;;;4.55;;
32760;SDS011;19126;47.472;7.850;2023-08-24T10:41:47;21.35;;;4.80;;
32760;SDS011;19126;47.472;7.850;2023-08-24T10:44:23;21.10;;;5.43;;
32760;SDS011;19126;47.472;7.850;2023-08-24T10:47:07;15.40;;;4.90;;
32760;SDS011;19126;47.472;7.850;2023-08-24T10:49:39;20.83;;;5.78;;
32760;SDS011;19126;47.472;7.850;2023-08-24T10:52:16;15.18;;;5.00;;
32760;SDS011;19126;47.472;7.850;2023-08-24T10:54:47;24.50;;;4.45;;
32760;SDS011;19126;47.472;7.850;2023-08-24T10:57:19;19.92;;;4.38;;
32760;SDS011;19126;47.472;7.850;2023-08-24T10:59:59;15.85;;;4.75;;
32760;SDS011;19126;47.472;7.850;2023-08-24T11:02:40;21.00;;;4.95;;
32760;SDS011;19126;47.472;7.850;2023-08-24T11:05:14;21.42;;;4.82;;
32760;SDS011;19126;47.472;7.850;2023-08-24T11:07:50;23.80;;;5.10;;
32760;SDS011;19126;47.472;7.850;2023-08-24T11:10:21;14.27;;;4.60;;
32760;SDS011;19126;47.472;7.850;2023-08-24T11:13:05;19.75;;;5.25;;
32760;SDS011;19126;47.472;7.850;2023-08-24T11:15:36;23.98;;;4.63;;
32760;SDS011;19126;47.472;7.850;2023-08-24T11:18:12;15.00;;;5.18;;
32760;SDS011;19126;47.472;7.850;2023-08-24T11:20:49;17.33;;;4.35;;
32760;SDS011;19126;47.472;7.850;2023-08-24T11:23:19;27.65;;;4.85;;
32760;SDS011;19126;47.472;7.850;2023-08-24T11:25:48;15.05;;;4.63;;
32760;SDS011;19126;47.472;7.850;2023-08-24T11:28:20;24.67;;;5.53;;
32760;SDS011;19126;47.472;7.850;2023-08-24T11:30:49;17.20;;;4.43;;
32760;SDS011;19126;47.472;7.850;2023-08-24T11:33:17;27.42;;;5.50;;
32760;SDS011;19126;47.472;7.850;2023-08-24T11:35:55;25.67;;;4.22;;
32760;SDS011;19126;47.472;7.850;2023-08-24T11:38:23;22.10;;;4.10;;
32760;SDS011;19126;47.472;7.850;2023-08-24T11:40:50;19.02;;;4.28;;
32760;SDS011;19126;47.472;7.850;2023-08-24T11:43:23;15.05;;;4.53;;
32760;SDS011;19126;47.472;7.850;2023-08-24T11:45:53;20.20;;;4.75;;
32760;SDS011;19126;47.472;7.850;2023-08-24T11:48:23;23.35;;;4.57;;
32760;SDS011;19126;47.472;7.850;2023-08-24T11:50:54;18.83;;;4.60;;
32760;SDS011;19126;47.472;7.850;2023-08-24T11:53:21;22.90;;;5.00;;
32760;SDS011;19126;47.472;7.850;2023-08-24T11:55:49;19.70;;;4.32;;
32760;SDS011;19126;47.472;7.850;2023-08-24T11:58:19;20.67;;;4.78;;
32760;SDS011;19126;47.472;7.850;2023-08-24T12:00:47;20.75;;;4.70;;
32760;SDS011;19126;47.472;7.850;2023-08-24T12:03:16;22.92;;;4.72;;
32760;SDS011;19126;47.472;7.850;2023-08-24T12:05:44;18.52;;;4.35;;
32760;SDS011;19126;47.472;7.850;2023-08-24T12:08:11;19.08;;;4.47;;
32760;SDS011;19126;47.472;7.850;2023-08-24T12:10:42;23.05;;;4.68;;
32760;SDS011;19126;47.472;7.850;2023-08-24T12:13:11;15.55;;;4.47;;
32760;SDS011;19126;47.472;7.850;2023-08-24T12:15:40;26.25;;;4.80;;
32760;SDS011;19126;47.472;7.850;2023-08-24T12:18:08;18.35;;;4.05;;
32760;SDS011;19126;47.472;7.850;2023-08-24T12:20:38;15.05;;;4.30;;
32760;SDS011;19126;47.472;7.850;2023-08-24T12:23:06;18.70;;;4.75;;
32760;SDS011;19126;47.472;7.850;2023-08-24T12:25:36;22.40;;;4.75;;
32760;SDS011;19126;47.472;7.850;2023-08-24T12:28:10;18.52;;;4.75;;
32760;SDS011;19126;47.472;7.850;2023-08-24T12:30:43;13.98;;;4.43;;
32760;SDS011;19126;47.472;7.850;2023-08-24T12:33:22;18.48;;;4.65;;
32760;SDS011;19126;47.472;7.850;2023-08-24T12:35:52;16.70;;;4.07;;
32760;SDS011;19126;47.472;7.850;2023-08-24T12:38:20;17.53;;;4.70;;
32760;SDS011;19126;47.472;7.850;2023-08-24T12:40:48;13.45;;;4.30;;
32760;SDS011;19126;47.472;7.850;2023-08-24T12:43:16;19.05;;;4.63;;
32760;SDS011;19126;47.472;7.850;2023-08-24T12:45:44;20.90;;;4.90;;
32760;SDS011;19126;47.472;7.850;2023-08-24T12:48:11;23.42;;;3.97;;
32760;SDS011;19126;47.472;7.850;2023-08-24T12:50:38;19.70;;;4.60;;
32760;SDS011;19126;47.472;7.850;2023-08-24T12:53:07;16.42;;;4.47;;
32760;SDS011;19126;47.472;7.850;2023-08-24T12:55:35;20.65;;;4.30;;
32760;SDS011;19126;47.472;7.850;2023-08-24T12:58:06;17.77;;;5.25;;
32760;SDS011;19126;47.472;7.850;2023-08-24T13:00:33;15.10;;;3.80;;
32760;SDS011;19126;47.472;7.850;2023-08-24T13:03:00;22.00;;;4.75;;
32760;SDS011;19126;47.472;7.850;2023-08-24T13:05:28;28.20;;;5.15;;
32760;SDS011;19126;47.472;7.850;2023-08-24T13:07:55;31.08;;;5.35;;
32760;SDS011;19126;47.472;7.850;2023-08-24T13:10:24;24.92;;;4.63;;
32760;SDS011;19126;47.472;7.850;2023-08-24T13:12:51;30.20;;;5.70;;
32760;SDS011;19126;47.472;7.850;2023-08-24T13:15:19;23.23;;;5.13;;
32760;SDS011;19126;47.472;7.850;2023-08-24T13:17:46;20.52;;;4.63;;
32760;SDS011;19126;47.472;7.850;2023-08-24T13:20:14;24.05;;;5.03;;
32760;SDS011;19126;47.472;7.850;2023-08-24T13:22:42;20.35;;;4.55;;
32760;SDS011;19126;47.472;7.850;2023-08-24T13:25:09;25.75;;;5.38;;
32760;SDS011;19126;47.472;7.850;2023-08-24T13:27:38;22.38;;;5.57;;
32760;SDS011;19126;47.472;7.850;2023-08-24T13:30:06;20.95;;;5.63;;
32760;SDS011;19126;47.472;7.850;2023-08-24T13:32:34;31.25;;;6.10;;
32760;SDS011;19126;47.472;7.850;2023-08-24T13:35:01;30.52;;;5.80;;
32760;SDS011;19126;47.472;7.850;2023-08-24T13:37:28;19.77;;;5.68;;
32760;SDS011;19126;47.472;7.850;2023-08-24T13:39:57;24.45;;;5.95;;
32760;SDS011;19126;47.472;7.850;2023-08-24T13:42:25;26.85;;;6.32;;
32760;SDS011;19126;47.472;7.850;2023-08-24T13:44:54;20.05;;;5.90;;
32760;SDS011;19126;47.472;7.850;2023-08-24T13:47:21;30.42;;;5.85;;
32760;SDS011;19126;47.472;7.850;2023-08-24T13:49:48;23.40;;;6.15;;
32760;SDS011;19126;47.472;7.850;2023-08-24T13:52:16;25.08;;;5.88;;
32760;SDS011;19126;47.472;7.850;2023-08-24T13:54:44;23.88;;;6.32;;
32760;SDS011;19126;47.472;7.850;2023-08-24T13:57:12;16.88;;;5.05;;
32760;SDS011;19126;47.472;7.850;2023-08-24T13:59:40;22.58;;;5.88;;
32760;SDS011;19126;47.472;7.850;2023-08-24T14:02:08;20.48;;;5.35;;
32760;SDS011;19126;47.472;7.850;2023-08-24T14:04:36;17.23;;;5.15;;
32760;SDS011;19126;47.472;7.850;2023-08-24T14:07:04;20.20;;;5.60;;
32760;SDS011;19126;47.472;7.850;2023-08-24T14:09:31;31.95;;;5.55;;
32760;SDS011;19126;47.472;7.850;2023-08-24T14:11:59;28.58;;;5.70;;
32760;SDS011;19126;47.472;7.850;2023-08-24T14:14:26;22.58;;;5.60;;
32760;SDS011;19126;47.472;7.850;2023-08-24T14:16:53;23.50;;;5.70;;
32760;SDS011;19126;47.472;7.850;2023-08-24T14:19:23;25.77;;;6.00;;
32760;SDS011;19126;47.472;7.850;2023-08-24T14:21:51;32.70;;;5.30;;
32760;SDS011;19126;47.472;7.850;2023-08-24T14:24:18;15.75;;;4.75;;
32760;SDS011;19126;47.472;7.850;2023-08-24T14:26:46;26.40;;;5.22;;
32760;SDS011;19126;47.472;7.850;2023-08-24T14:29:13;19.35;;;5.32;;
32760;SDS011;19126;47.472;7.850;2023-08-24T14:31:42;22.58;;;5.05;;
32760;SDS011;19126;47.472;7.850;2023-08-24T14:34:09;27.38;;;5.35;;
32760;SDS011;19126;47.472;7.850;2023-08-24T14:36:38;31.77;;;5.75;;
32760;SDS011;19126;47.472;7.850;2023-08-24T14:39:05;18.00;;;5.43;;
32760;SDS011;19126;47.472;7.850;2023-08-24T14:41:33;23.42;;;5.40;;
32760;SDS011;19126;47.472;7.850;2023-08-24T14:44:00;29.05;;;6.57;;
32760;SDS011;19126;47.472;7.850;2023-08-24T14:46:27;30.23;;;5.10;;
32760;SDS011;19126;47.472;7.850;2023-08-24T14:48:55;21.23;;;5.40;;